sensor_id;sensor_type;location;lat;lon;timestamp;pressure;altitude;pressure_sealevel;temperature;humidity
38197;BME280;26543;51.976;4.616;2023-09-07T00:01:32;52362.44;;;-140.72;100.00
38197;BME280;26543;51.976;4.616;2023-09-07T00:03:57;52382.75;;;-140.72;100.00
38197;BME280;26543;51.976;4.616;2023-09-07T00:06:22;52388.84;;;-140.72;100.00
38197;BME280;26543;51.976;4.616;2023-09-07T00:08:48;52386.81;;;-140.72;100.00
38197;BME280;26543;51.976;4.616;2023-09-07T00:11:13;52415.22;;;-140.72;100.00
38197;BME280;26543;51.976;4.616;2023-09-07T00:13:38;52433.47;;;-140.72;100.00
38197;BME280;26543;51.976;4.616;2023-09-07T00:16:04;52407.09;;;-140.72;100.00
38197;BME280;26543;51.976;4.616;2023-09-07T00:18:29;52405.06;;;-140.72;100.00
38197;BME280;26543;51.976;4.616;2023-09-07T00:20:55;52368.53;;;-140.72;100.00
38197;BME280;26543;51.976;4.616;2023-09-07T00:23:20;52386.81;;;-140.72;100.00
38197;BME280;26543;51.976;4.616;2023-09-07T00:25:45;52394.91;;;-140.72;100.00
38197;BME280;26543;51.976;4.616;2023-09-07T00:28:11;52407.09;;;-140.72;100.00
38197;BME280;26543;51.976;4.616;2023-09-07T00:30:36;52421.28;;;-140.72;100.00
38197;BME280;26543;51.976;4.616;2023-09-07T00:33:01;52390.84;;;-140.72;100.00
38197;BME280;26543;51.976;4.616;2023-09-07T00:35:26;52405.06;;;-140.72;100.00
38197;BME280;26543;51.976;4.616;2023-09-07T00:37:52;52396.94;;;-140.72;100.00
38197;BME280;26543;51.976;4.616;2023-09-07T00:40:17;52427.38;;;-140.72;100.00
38197;BME280;26543;51.976;4.616;2023-09-07T00:42:42;52374.63;;;-140.72;100.00
38197;BME280;26543;51.976;4.616;2023-09-07T00:45:08;52415.22;;;-140.72;100.00
38197;BME280;26543;51.976;4.616;2023-09-07T00:47:33;52390.84;;;-140.72;100.00
38197;BME280;26543;51.976;4.616;2023-09-07T00:50:00;52403.03;;;-140.72;100.00
38197;BME280;26543;51.976;4.616;2023-09-07T00:52:30;52419.28;;;-140.72;100.00
38197;BME280;26543;51.976;4.616;2023-09-07T00:54:56;52407.09;;;-140.72;100.00
38197;BME280;26543;51.976;4.616;2023-09-07T00:57:22;52415.22;;;-140.72;100.00
38197;BME280;26543;51.976;4.616;2023-09-07T00:59:47;52413.19;;;-140.72;100.00
38197;BME280;26543;51.976;4.616;2023-09-07T01:02:13;52423.31;;;-140.72;100.00
38197;BME280;26543;51.976;4.616;2023-09-07T01:04:38;52415.22;;;-140.72;100.00
38197;BME280;26543;51.976;4.616;2023-09-07T01:07:07;52423.31;;;-140.72;100.00
38197;BME280;26543;51.976;4.616;2023-09-07T01:09:35;52382.75;;;-140.72;100.00
38197;BME280;26543;51.976;4.616;2023-09-07T01:12:02;52398.97;;;-140.72;100.00
38197;BME280;26543;51.976;4.616;2023-09-07T01:14:28;52435.50;;;-140.72;100.00
38197;BME280;26543;51.976;4.616;2023-09-07T01:16:54;52431.44;;;-140.72;100.00
38197;BME280;26543;51.976;4.616;2023-09-07T01:19:26;52405.06;;;-140.72;100.00
38197;BME280;26543;51.976;4.616;2023-09-07T01:21:52;52405.06;;;-140.72;100.00
38197;BME280;26543;51.976;4.616;2023-09-07T01:24:17;52453.75;;;-140.72;100.00
38197;BME280;26543;51.976;4.616;2023-09-07T01:26:43;52411.16;;;-140.72;100.00
38197;BME280;26543;51.976;4.616;2023-09-07T01:29:08;52423.31;;;-140.72;100.00
38197;BME280;26543;51.976;4.616;2023-09-07T01:31:37;52467.97;;;-140.72;100.00
38197;BME280;26543;51.976;4.616;2023-09-07T01:34:03;52423.31;;;-140.72;100.00
38197;BME280;26543;51.976;4.616;2023-09-07T01:36:28;52455.78;;;-140.72;100.00
38197;BME280;26543;51.976;4.616;2023-09-07T01:38:54;52435.50;;;-140.72;100.00
38197;BME280;26543;51.976;4.616;2023-09-07T01:41:19;52419.28;;;-140.72;100.00
38197;BME280;26543;51.976;4.616;2023-09-07T01:43:44;52425.34;;;-140.72;100.00
38197;BME280;26543;51.976;4.616;2023-09-07T01:46:21;52447.69;;;-140.72;100.00
38197;BME280;26543;51.976;4.616;2023-09-07T01:48:46;52447.69;;;-140.72;100.00
38197;BME280;26543;51.976;4.616;2023-09-07T01:51:19;52476.09;;;-140.72;100.00
38197;BME280;26543;51.976;4.616;2023-09-07T01:53:47;52427.38;;;-140.72;100.00
38197;BME280;26543;51.976;4.616;2023-09-07T01:56:12;52394.91;;;-140.72;100.00
38197;BME280;26543;51.976;4.616;2023-09-07T01:58:37;52411.16;;;-140.72;100.00
38197;BME280;26543;51.976;4.616;2023-09-07T02:03:47;52443.63;;;-140.72;100.00
38197;BME280;26543;51.976;4.616;2023-09-07T02:06:13;52435.50;;;-140.72;100.00
38197;BME280;26543;51.976;4.616;2023-09-07T02:08:48;52474.06;;;-140.72;100.00
38197;BME280;26543;51.976;4.616;2023-09-07T02:11:13;52437.53;;;-140.72;100.00
38197;BME280;26543;51.976;4.616;2023-09-07T02:13:42;52457.81;;;-140.72;100.00
38197;BME280;26543;51.976;4.616;2023-09-07T02:16:08;52459.84;;;-140.72;100.00
38197;BME280;26543;51.976;4.616;2023-09-07T02:18:33;52482.16;;;-140.72;100.00
38197;BME280;26543;51.976;4.616;2023-09-07T02:21:02;52447.69;;;-140.72;100.00
38197;BME280;26543;51.976;4.616;2023-09-07T02:23:28;52447.69;;;-140.72;100.00
38197;BME280;26543;51.976;4.616;2023-09-07T02:25:53;52423.31;;;-140.72;100.00
38197;BME280;26543;51.976;4.616;2023-09-07T02:28:19;52431.44;;;-140.72;100.00
38197;BME280;26543;51.976;4.616;2023-09-07T02:30:44;52431.44;;;-140.72;100.00
38197;BME280;26543;51.976;4.616;2023-09-07T02:33:18;52496.38;;;-140.72;100.00
38197;BME280;26543;51.976;4.616;2023-09-07T02:35:43;52467.97;;;-140.72;100.00
38197;BME280;26543;51.976;4.616;2023-09-07T02:38:09;52461.88;;;-140.72;100.00
38197;BME280;26543;51.976;4.616;2023-09-07T02:43:27;52500.44;;;-140.72;100.00
38197;BME280;26543;51.976;4.616;2023-09-07T02:45:52;52461.88;;;-140.72;100.00
38197;BME280;26543;51.976;4.616;2023-09-07T02:48:17;52480.16;;;-140.72;100.00
38197;BME280;26543;51.976;4.616;2023-09-07T02:50:42;52518.69;;;-140.72;100.00
38197;BME280;26543;51.976;4.616;2023-09-07T02:53:10;52472.03;;;-140.72;100.00
38197;BME280;26543;51.976;4.616;2023-09-07T02:55:35;52461.88;;;-140.72;100.00
38197;BME280;26543;51.976;4.616;2023-09-07T02:58:02;52472.03;;;-140.72;100.00
38197;BME280;26543;51.976;4.616;2023-09-07T03:00:27;52486.22;;;-140.72;100.00
38197;BME280;26543;51.976;4.616;2023-09-07T03:02:53;52480.16;;;-140.72;100.00
38197;BME280;26543;51.976;4.616;2023-09-07T03:05:18;52500.44;;;-140.72;100.00
38197;BME280;26543;51.976;4.616;2023-09-07T03:07:44;52492.31;;;-140.72;100.00
38197;BME280;26543;51.976;4.616;2023-09-07T03:10:10;52429.41;;;-140.72;100.00
38197;BME280;26543;51.976;4.616;2023-09-07T03:12:35;52447.69;;;-140.72;100.00
38197;BME280;26543;51.976;4.616;2023-09-07T03:15:00;52518.69;;;-140.72;100.00
38197;BME280;26543;51.976;4.616;2023-09-07T03:17:28;52494.34;;;-140.72;100.00
38197;BME280;26543;51.976;4.616;2023-09-07T03:19:53;52480.16;;;-140.72;100.00
38197;BME280;26543;51.976;4.616;2023-09-07T03:22:19;52465.94;;;-140.72;100.00
38197;BME280;26543;51.976;4.616;2023-09-07T03:24:44;52461.88;;;-140.72;100.00
38197;BME280;26543;51.976;4.616;2023-09-07T03:27:10;52467.97;;;-140.72;100.00
38197;BME280;26543;51.976;4.616;2023-09-07T03:29:36;52467.97;;;-140.72;100.00
38197;BME280;26543;51.976;4.616;2023-09-07T03:32:02;52486.22;;;-140.72;100.00
38197;BME280;26543;51.976;4.616;2023-09-07T03:34:27;52536.97;;;-140.72;100.00
38197;BME280;26543;51.976;4.616;2023-09-07T03:36:53;52472.03;;;-140.72;100.00
38197;BME280;26543;51.976;4.616;2023-09-07T03:39:18;52518.69;;;-140.72;100.00
38197;BME280;26543;51.976;4.616;2023-09-07T03:41:44;52459.84;;;-140.72;100.00
38197;BME280;26543;51.976;4.616;2023-09-07T03:44:09;52463.91;;;-140.72;100.00
38197;BME280;26543;51.976;4.616;2023-09-07T03:46:34;52494.34;;;-140.72;100.00
38197;BME280;26543;51.976;4.616;2023-09-07T03:48:59;52478.13;;;-140.72;100.00
38197;BME280;26543;51.976;4.616;2023-09-07T03:51:27;52496.38;;;-140.72;100.00
38197;BME280;26543;51.976;4.616;2023-09-07T03:53:52;52472.03;;;-140.72;100.00
38197;BME280;26543;51.976;4.616;2023-09-07T03:56:17;52476.09;;;-140.72;100.00
38197;BME280;26543;51.976;4.616;2023-09-07T03:58:42;52486.22;;;-140.72;100.00
38197;BME280;26543;51.976;4.616;2023-09-07T04:01:09;52498.41;;;-140.72;100.00
38197;BME280;26543;51.976;4.616;2023-09-07T04:03:34;52498.41;;;-140.72;100.00
38197;BME280;26543;51.976;4.616;2023-09-07T04:06:07;52516.66;;;-140.72;100.00
38197;BME280;26543;51.976;4.616;2023-09-07T04:08:32;52516.66;;;-140.72;100.00
38197;BME280;26543;51.976;4.616;2023-09-07T04:10:57;52522.75;;;-140.72;100.00
38197;BME280;26543;51.976;4.616;2023-09-07T04:13:23;52526.81;;;-140.72;100.00
38197;BME280;26543;51.976;4.616;2023-09-07T04:15:48;52516.66;;;-140.72;100.00
38197;BME280;26543;51.976;4.616;2023-09-07T04:18:14;52488.25;;;-140.72;100.00
38197;BME280;26543;51.976;4.616;2023-09-07T04:20:40;52504.50;;;-140.72;100.00
38197;BME280;26543;51.976;4.616;2023-09-07T04:23:05;52506.53;;;-140.72;100.00
38197;BME280;26543;51.976;4.616;2023-09-07T04:28:25;52522.75;;;-140.72;100.00
38197;BME280;26543;51.976;4.616;2023-09-07T04:30:50;52514.63;;;-140.72;100.00
38197;BME280;26543;51.976;4.616;2023-09-07T04:33:21;52488.25;;;-140.72;100.00
38197;BME280;26543;51.976;4.616;2023-09-07T04:35:51;52504.50;;;-140.72;100.00
38197;BME280;26543;51.976;4.616;2023-09-07T04:38:16;52557.25;;;-140.72;100.00
38197;BME280;26543;51.976;4.616;2023-09-07T04:43:12;52512.59;;;-140.72;100.00
38197;BME280;26543;51.976;4.616;2023-09-07T04:45:45;52524.78;;;-140.72;100.00
38197;BME280;26543;51.976;4.616;2023-09-07T04:48:10;52510.59;;;-140.72;100.00
38197;BME280;26543;51.976;4.616;2023-09-07T04:50:36;52506.53;;;-140.72;100.00
38197;BME280;26543;51.976;4.616;2023-09-07T04:53:02;52536.97;;;-140.72;100.00
38197;BME280;26543;51.976;4.616;2023-09-07T04:55:27;52516.66;;;-140.72;100.00
38197;BME280;26543;51.976;4.616;2023-09-07T04:57:52;52490.28;;;-140.72;100.00
38197;BME280;26543;51.976;4.616;2023-09-07T05:00:17;52520.72;;;-140.72;100.00
38197;BME280;26543;51.976;4.616;2023-09-07T05:02:43;52486.22;;;-140.72;100.00
38197;BME280;26543;51.976;4.616;2023-09-07T05:05:08;52520.72;;;-140.72;100.00
38197;BME280;26543;51.976;4.616;2023-09-07T05:07:33;52520.72;;;-140.72;100.00
38197;BME280;26543;51.976;4.616;2023-09-07T05:09:59;52520.72;;;-140.72;100.00
38197;BME280;26543;51.976;4.616;2023-09-07T05:12:30;52536.97;;;-140.72;100.00
38197;BME280;26543;51.976;4.616;2023-09-07T05:14:55;52526.81;;;-140.72;100.00
38197;BME280;26543;51.976;4.616;2023-09-07T05:17:21;52502.47;;;-140.72;100.00
38197;BME280;26543;51.976;4.616;2023-09-07T05:19:48;52516.66;;;-140.72;100.00
38197;BME280;26543;51.976;4.616;2023-09-07T05:22:14;52539.00;;;-140.72;100.00
38197;BME280;26543;51.976;4.616;2023-09-07T05:24:43;52498.41;;;-140.72;100.00
38197;BME280;26543;51.976;4.616;2023-09-07T05:27:11;52524.78;;;-140.72;100.00
38197;BME280;26543;51.976;4.616;2023-09-07T05:29:38;52488.25;;;-140.72;100.00
38197;BME280;26543;51.976;4.616;2023-09-07T05:32:10;52520.72;;;-140.72;100.00
38197;BME280;26543;51.976;4.616;2023-09-07T05:34:35;52488.25;;;-140.72;100.00
38197;BME280;26543;51.976;4.616;2023-09-07T05:37:00;52539.00;;;-140.72;100.00
38197;BME280;26543;51.976;4.616;2023-09-07T05:39:26;52488.25;;;-140.72;100.00
38197;BME280;26543;51.976;4.616;2023-09-07T05:41:51;52500.44;;;-140.72;100.00
38197;BME280;26543;51.976;4.616;2023-09-07T05:44:17;52524.78;;;-140.72;100.00
38197;BME280;26543;51.976;4.616;2023-09-07T05:46:42;52504.50;;;-140.72;100.00
38197;BME280;26543;51.976;4.616;2023-09-07T05:49:07;52467.97;;;-140.72;100.00
38197;BME280;26543;51.976;4.616;2023-09-07T05:51:33;52541.03;;;-140.72;100.00
38197;BME280;26543;51.976;4.616;2023-09-07T05:53:58;52500.44;;;-140.72;100.00
38197;BME280;26543;51.976;4.616;2023-09-07T05:56:23;52508.56;;;-140.72;100.00
38197;BME280;26543;51.976;4.616;2023-09-07T05:58:48;52524.78;;;-140.72;100.00
38197;BME280;26543;51.976;4.616;2023-09-07T06:01:15;52506.53;;;-140.72;100.00
38197;BME280;26543;51.976;4.616;2023-09-07T06:03:40;52520.72;;;-140.72;100.00
38197;BME280;26543;51.976;4.616;2023-09-07T06:06:06;52492.31;;;-140.72;100.00
38197;BME280;26543;51.976;4.616;2023-09-07T06:08:31;52518.69;;;-140.72;100.00
38197;BME280;26543;51.976;4.616;2023-09-07T06:10:57;52476.09;;;-140.72;100.00
38197;BME280;26543;51.976;4.616;2023-09-07T06:13:22;52520.72;;;-140.72;100.00
38197;BME280;26543;51.976;4.616;2023-09-07T06:15:47;52504.50;;;-140.72;100.00
38197;BME280;26543;51.976;4.616;2023-09-07T06:18:12;52494.34;;;-140.72;100.00
38197;BME280;26543;51.976;4.616;2023-09-07T06:20:38;52488.25;;;-140.72;100.00
38197;BME280;26543;51.976;4.616;2023-09-07T06:23:03;52494.34;;;-140.72;100.00
38197;BME280;26543;51.976;4.616;2023-09-07T06:25:28;52545.06;;;-140.72;100.00
38197;BME280;26543;51.976;4.616;2023-09-07T06:27:54;52496.38;;;-140.72;100.00
38197;BME280;26543;51.976;4.616;2023-09-07T06:30:19;52476.09;;;-140.72;100.00
38197;BME280;26543;51.976;4.616;2023-09-07T06:32:44;52496.38;;;-140.72;100.00
38197;BME280;26543;51.976;4.616;2023-09-07T06:35:10;52490.28;;;-140.72;100.00
38197;BME280;26543;51.976;4.616;2023-09-07T06:37:35;52536.97;;;-140.72;100.00
38197;BME280;26543;51.976;4.616;2023-09-07T06:40:01;52498.41;;;-140.72;100.00
38197;BME280;26543;51.976;4.616;2023-09-07T06:42:28;52484.19;;;-140.72;100.00
38197;BME280;26543;51.976;4.616;2023-09-07T06:44:53;52459.84;;;-140.72;100.00
38197;BME280;26543;51.976;4.616;2023-09-07T06:47:19;52488.25;;;-140.72;100.00
38197;BME280;26543;51.976;4.616;2023-09-07T06:49:44;52504.50;;;-140.72;100.00
38197;BME280;26543;51.976;4.616;2023-09-07T06:52:09;52490.28;;;-140.72;100.00
38197;BME280;26543;51.976;4.616;2023-09-07T06:54:34;52480.16;;;-140.72;100.00
38197;BME280;26543;51.976;4.616;2023-09-07T06:57:00;52484.19;;;-140.72;100.00
38197;BME280;26543;51.976;4.616;2023-09-07T06:59:25;52500.44;;;-140.72;100.00
38197;BME280;26543;51.976;4.616;2023-09-07T07:01:50;52455.78;;;-140.72;100.00
38197;BME280;26543;51.976;4.616;2023-09-07T07:04:15;52459.84;;;-140.72;100.00
38197;BME280;26543;51.976;4.616;2023-09-07T07:06:41;52455.78;;;-140.72;100.00
38197;BME280;26543;51.976;4.616;2023-09-07T07:09:06;52472.03;;;-140.72;100.00
38197;BME280;26543;51.976;4.616;2023-09-07T07:11:32;52439.56;;;-140.72;100.00
38197;BME280;26543;51.976;4.616;2023-09-07T07:13:57;52427.38;;;-140.72;100.00
38197;BME280;26543;51.976;4.616;2023-09-07T07:16:22;52453.75;;;-140.72;100.00
38197;BME280;26543;51.976;4.616;2023-09-07T07:18:47;52467.97;;;-140.72;100.00
38197;BME280;26543;51.976;4.616;2023-09-07T07:21:12;52453.75;;;-140.72;100.00
38197;BME280;26543;51.976;4.616;2023-09-07T07:23:38;52433.47;;;-140.72;100.00
38197;BME280;26543;51.976;4.616;2023-09-07T07:26:03;52470.00;;;-140.72;100.00
38197;BME280;26543;51.976;4.616;2023-09-07T07:28:28;52417.25;;;-140.72;100.00
38197;BME280;26543;51.976;4.616;2023-09-07T07:30:53;52463.91;;;-140.72;100.00
38197;BME280;26543;51.976;4.616;2023-09-07T07:33:19;52431.44;;;-140.72;100.00
38197;BME280;26543;51.976;4.616;2023-09-07T07:35:44;52467.97;;;-140.72;100.00
38197;BME280;26543;51.976;4.616;2023-09-07T07:38:11;52394.91;;;-140.72;100.00
38197;BME280;26543;51.976;4.616;2023-09-07T07:40:38;52413.19;;;-140.72;100.00
38197;BME280;26543;51.976;4.616;2023-09-07T07:43:03;52476.09;;;-140.72;100.00
38197;BME280;26543;51.976;4.616;2023-09-07T07:45:28;52421.28;;;-140.72;100.00
38197;BME280;26543;51.976;4.616;2023-09-07T07:47:54;52425.34;;;-140.72;100.00
38197;BME280;26543;51.976;4.616;2023-09-07T07:50:19;52411.16;;;-140.72;100.00
38197;BME280;26543;51.976;4.616;2023-09-07T07:52:44;52419.28;;;-140.72;100.00
38197;BME280;26543;51.976;4.616;2023-09-07T07:55:10;52427.38;;;-140.72;100.00
38197;BME280;26543;51.976;4.616;2023-09-07T07:57:35;52415.22;;;-140.72;100.00
38197;BME280;26543;51.976;4.616;2023-09-07T08:00:01;52423.31;;;-140.72;100.00
38197;BME280;26543;51.976;4.616;2023-09-07T08:02:28;52411.16;;;-140.72;100.00
38197;BME280;26543;51.976;4.616;2023-09-07T08:04:53;52403.03;;;-140.72;100.00
38197;BME280;26543;51.976;4.616;2023-09-07T08:07:18;52423.31;;;-140.72;100.00
38197;BME280;26543;51.976;4.616;2023-09-07T08:09:44;52388.84;;;-140.72;100.00
38197;BME280;26543;51.976;4.616;2023-09-07T08:12:09;52403.03;;;-140.72;100.00
38197;BME280;26543;51.976;4.616;2023-09-07T08:14:35;52419.28;;;-140.72;100.00
38197;BME280;26543;51.976;4.616;2023-09-07T08:17:00;52419.28;;;-140.72;100.00
38197;BME280;26543;51.976;4.616;2023-09-07T08:19:26;52376.66;;;-140.72;100.00
38197;BME280;26543;51.976;4.616;2023-09-07T08:21:53;52380.72;;;-140.72;100.00
38197;BME280;26543;51.976;4.616;2023-09-07T08:24:18;52342.16;;;-140.72;100.00
38197;BME280;26543;51.976;4.616;2023-09-07T08:26:43;52344.19;;;-140.72;100.00
38197;BME280;26543;51.976;4.616;2023-09-07T08:29:08;52366.50;;;-140.72;100.00
38197;BME280;26543;51.976;4.616;2023-09-07T08:31:34;52370.56;;;-140.72;100.00
38197;BME280;26543;51.976;4.616;2023-09-07T08:34:04;52354.34;;;-140.72;100.00
38197;BME280;26543;51.976;4.616;2023-09-07T08:36:29;52366.50;;;-140.72;100.00
38197;BME280;26543;51.976;4.616;2023-09-07T08:38:57;52330.00;;;-140.72;100.00
38197;BME280;26543;51.976;4.616;2023-09-07T08:41:24;52340.13;;;-140.72;100.00
38197;BME280;26543;51.976;4.616;2023-09-07T08:43:50;52330.00;;;-140.72;100.00
38197;BME280;26543;51.976;4.616;2023-09-07T08:46:18;52305.63;;;-140.72;100.00
38197;BME280;26543;51.976;4.616;2023-09-07T08:48:45;52321.88;;;-140.72;100.00
38197;BME280;26543;51.976;4.616;2023-09-07T08:51:11;52289.41;;;-140.72;100.00
38197;BME280;26543;51.976;4.616;2023-09-07T08:53:38;52269.13;;;-140.72;100.00
38197;BME280;26543;51.976;4.616;2023-09-07T08:56:04;52258.97;;;-140.72;100.00
38197;BME280;26543;51.976;4.616;2023-09-07T08:58:29;52263.03;;;-140.72;100.00
38197;BME280;26543;51.976;4.616;2023-09-07T09:00:57;52224.47;;;-140.72;100.00
38197;BME280;26543;51.976;4.616;2023-09-07T09:03:22;52232.59;;;-140.72;100.00
38197;BME280;26543;51.976;4.616;2023-09-07T09:05:48;52185.94;;;-140.72;100.00
38197;BME280;26543;51.976;4.616;2023-09-07T09:08:15;52149.41;;;-140.72;61.91
38197;BME280;26543;51.976;4.616;2023-09-07T09:10:45;52094.63;;;-140.72;0.00
38197;BME280;26543;51.976;4.616;2023-09-07T09:13:10;52104.75;;;-140.72;0.00
38197;BME280;26543;51.976;4.616;2023-09-07T09:15:36;52112.88;;;-140.72;0.00
38197;BME280;26543;51.976;4.616;2023-09-07T09:18:11;52098.69;;;-140.72;0.00
38197;BME280;26543;51.976;4.616;2023-09-07T09:20:37;52084.47;;;-140.72;0.00
38197;BME280;26543;51.976;4.616;2023-09-07T09:23:03;52049.97;;;-140.72;0.00
38197;BME280;26543;51.976;4.616;2023-09-07T09:25:30;52033.75;;;-140.72;0.00
38197;BME280;26543;51.976;4.616;2023-09-07T09:27:56;52005.34;;;-140.72;0.00
38197;BME280;26543;51.976;4.616;2023-09-07T09:30:21;52013.47;;;-140.72;0.00
38197;BME280;26543;51.976;4.616;2023-09-07T09:32:46;51999.25;;;-140.72;0.00
38197;BME280;26543;51.976;4.616;2023-09-07T09:35:13;51991.16;;;-140.72;0.00
38197;BME280;26543;51.976;4.616;2023-09-07T09:37:47;51970.84;;;-140.72;0.00
38197;BME280;26543;51.976;4.616;2023-09-07T09:40:17;51989.13;;;-140.72;0.00
38197;BME280;26543;51.976;4.616;2023-09-07T09:42:43;51970.84;;;-140.72;0.00
38197;BME280;26543;51.976;4.616;2023-09-07T09:45:09;51952.59;;;-140.72;0.00
38197;BME280;26543;51.976;4.616;2023-09-07T09:47:36;51960.72;;;-140.72;0.00
38197;BME280;26543;51.976;4.616;2023-09-07T09:50:03;51966.81;;;-140.72;0.00
38197;BME280;26543;51.976;4.616;2023-09-07T09:52:31;51910.00;;;-140.72;0.00
38197;BME280;26543;51.976;4.616;2023-09-07T09:54:56;51916.06;;;-140.72;0.00
38197;BME280;26543;51.976;4.616;2023-09-07T09:57:22;51930.28;;;-140.72;0.00
38197;BME280;26543;51.976;4.616;2023-09-07T09:59:48;51924.19;;;-140.72;0.00
38197;BME280;26543;51.976;4.616;2023-09-07T10:02:13;51918.09;;;-140.72;0.00
38197;BME280;26543;51.976;4.616;2023-09-07T10:04:40;51883.63;;;-140.72;0.00
38197;BME280;26543;51.976;4.616;2023-09-07T10:07:05;51883.63;;;-140.72;0.00
38197;BME280;26543;51.976;4.616;2023-09-07T10:09:34;51914.03;;;-140.72;0.00
38197;BME280;26543;51.976;4.616;2023-09-07T10:12:01;51830.88;;;-140.72;0.00
38197;BME280;26543;51.976;4.616;2023-09-07T10:14:37;51861.28;;;-140.72;0.00
38197;BME280;26543;51.976;4.616;2023-09-07T10:17:03;51859.28;;;-140.72;0.00
38197;BME280;26543;51.976;4.616;2023-09-07T10:19:29;51881.59;;;-140.72;0.00
38197;BME280;26543;51.976;4.616;2023-09-07T10:21:55;51824.78;;;-140.72;0.00
38197;BME280;26543;51.976;4.616;2023-09-07T10:24:27;51780.16;;;-140.72;0.00
38197;BME280;26543;51.976;4.616;2023-09-07T10:26:59;51818.69;;;-140.72;0.00
38197;BME280;26543;51.976;4.616;2023-09-07T10:29:25;51790.28;;;-140.72;0.00
38197;BME280;26543;51.976;4.616;2023-09-07T10:31:51;51745.66;;;-140.72;0.00
38197;BME280;26543;51.976;4.616;2023-09-07T10:34:16;51759.84;;;-140.72;0.00
38197;BME280;26543;51.976;4.616;2023-09-07T10:36:42;51715.22;;;-140.72;0.00
38197;BME280;26543;51.976;4.616;2023-09-07T10:39:07;51749.72;;;-140.72;0.00
38197;BME280;26543;51.976;4.616;2023-09-07T10:41:43;51680.72;;;-140.72;0.00
38197;BME280;26543;51.976;4.616;2023-09-07T10:44:08;51668.56;;;-140.72;0.00
38197;BME280;26543;51.976;4.616;2023-09-07T10:46:35;51654.34;;;-140.72;0.00
38197;BME280;26543;51.976;4.616;2023-09-07T10:49:02;51648.28;;;-140.72;0.00
38197;BME280;26543;51.976;4.616;2023-09-07T10:51:27;51670.59;;;-140.72;0.00
38197;BME280;26543;51.976;4.616;2023-09-07T10:53:54;51672.63;;;-140.72;0.00
38197;BME280;26543;51.976;4.616;2023-09-07T10:56:20;51623.94;;;-140.72;0.00
38197;BME280;26543;51.976;4.616;2023-09-07T10:58:49;51567.13;;;-140.72;0.00
38197;BME280;26543;51.976;4.616;2023-09-07T11:01:16;51573.22;;;-140.72;0.00
38197;BME280;26543;51.976;4.616;2023-09-07T11:03:41;51534.66;;;-140.72;0.00
38197;BME280;26543;51.976;4.616;2023-09-07T11:06:08;51542.78;;;-140.72;0.00
38197;BME280;26543;51.976;4.616;2023-09-07T11:08:34;51593.50;;;-140.72;0.00
38197;BME280;26543;51.976;4.616;2023-09-07T11:11:00;51508.28;;;-140.72;0.00
38197;BME280;26543;51.976;4.616;2023-09-07T11:13:25;51528.59;;;-140.72;0.00
38197;BME280;26543;51.976;4.616;2023-09-07T11:15:53;51490.03;;;-140.72;0.00
38197;BME280;26543;51.976;4.616;2023-09-07T11:18:20;51524.53;;;-140.72;0.00
38197;BME280;26543;51.976;4.616;2023-09-07T11:20:46;51483.94;;;-140.72;0.00
38197;BME280;26543;51.976;4.616;2023-09-07T11:23:11;51508.28;;;-140.72;0.00
38197;BME280;26543;51.976;4.616;2023-09-07T11:25:37;51475.84;;;-140.72;0.00
38197;BME280;26543;51.976;4.616;2023-09-07T11:28:03;51481.91;;;-140.72;0.00
38197;BME280;26543;51.976;4.616;2023-09-07T11:30:29;51425.13;;;-140.72;0.00
38197;BME280;26543;51.976;4.616;2023-09-07T11:33:04;51433.22;;;-140.72;0.00
38197;BME280;26543;51.976;4.616;2023-09-07T11:35:30;51423.09;;;-140.72;0.00
38197;BME280;26543;51.976;4.616;2023-09-07T11:37:55;51469.75;;;-140.72;0.00
38197;BME280;26543;51.976;4.616;2023-09-07T11:40:20;51443.38;;;-140.72;0.00
38197;BME280;26543;51.976;4.616;2023-09-07T11:42:45;51396.72;;;-140.72;0.00
38197;BME280;26543;51.976;4.616;2023-09-07T11:45:11;51423.09;;;-140.72;0.00
38197;BME280;26543;51.976;4.616;2023-09-07T11:47:38;51439.31;;;-140.72;0.00
38197;BME280;26543;51.976;4.616;2023-09-07T11:50:03;51433.22;;;-140.72;0.00
38197;BME280;26543;51.976;4.616;2023-09-07T11:52:29;51358.19;;;-140.72;0.00
38197;BME280;26543;51.976;4.616;2023-09-07T11:54:54;51425.13;;;-140.72;0.00
38197;BME280;26543;51.976;4.616;2023-09-07T11:57:19;51408.88;;;-140.72;0.00
38197;BME280;26543;51.976;4.616;2023-09-07T11:59:44;51362.22;;;-140.72;0.00
38197;BME280;26543;51.976;4.616;2023-09-07T12:02:10;51374.41;;;-140.72;0.00
38197;BME280;26543;51.976;4.616;2023-09-07T12:04:40;51329.78;;;-140.72;0.00
38197;BME280;26543;51.976;4.616;2023-09-07T12:07:05;51319.63;;;-140.72;0.00
38197;BME280;26543;51.976;4.616;2023-09-07T12:09:30;51283.13;;;-140.72;0.00
38197;BME280;26543;51.976;4.616;2023-09-07T12:11:55;51319.63;;;-140.72;0.00
38197;BME280;26543;51.976;4.616;2023-09-07T12:14:21;51313.53;;;-140.72;0.00
38197;BME280;26543;51.976;4.616;2023-09-07T12:16:47;51380.50;;;-140.72;0.00
38197;BME280;26543;51.976;4.616;2023-09-07T12:19:12;51333.84;;;-140.72;0.00
38197;BME280;26543;51.976;4.616;2023-09-07T12:21:37;51370.34;;;-140.72;0.00
38197;BME280;26543;51.976;4.616;2023-09-07T12:24:03;51317.59;;;-140.72;0.00
38197;BME280;26543;51.976;4.616;2023-09-07T12:26:28;51309.50;;;-140.72;0.00
38197;BME280;26543;51.976;4.616;2023-09-07T12:28:53;51303.41;;;-140.72;0.00
38197;BME280;26543;51.976;4.616;2023-09-07T12:31:18;51325.72;;;-140.72;0.00
38197;BME280;26543;51.976;4.616;2023-09-07T12:33:44;51254.72;;;-140.72;0.00
38197;BME280;26543;51.976;4.616;2023-09-07T12:36:09;51206.03;;;-140.72;0.00
38197;BME280;26543;51.976;4.616;2023-09-07T12:38:35;51262.84;;;-140.72;0.00
38197;BME280;26543;51.976;4.616;2023-09-07T12:41:00;51252.69;;;-140.72;0.00